LAN890 SLLP-SLVR
Flight info
| Callsign | LAN890 |
|---|---|
| Flight time | 0h 53m |
| Altitude | 37000 |
| Route | DAKOG UW677 VIR |
| Aircraft | A320/M-SDE3FGHIRWY/LB1 |
Departure
| Time | 2026-05-07 20:47 |
|---|---|
| Airport | El Alto International Airport (SLLP) |
Arrival
| Time | 2026-05-07 21:40 |
|---|---|
| Airport | Viru Viru International Airport (SLVR) |
| Time | Latitude | Longitude | Altitude | Speed | Heading |
|---|---|---|---|---|---|
| 2026-05-07 20:16 | -16.50968 | -68.17687 | 13295 ft | 0 kts | 27° |
| 2026-05-07 20:17 | -16.50968 | -68.17688 | 13295 ft | 0 kts | 27° |
| 2026-05-07 20:38 | -16.50973 | -68.17690 | 13336 ft | 2 kts | 28° |
| 2026-05-07 20:38 | -16.50989 | -68.17700 | 13335 ft | 3 kts | 42° |
| 2026-05-07 20:38 | -16.51002 | -68.17715 | 13334 ft | 3 kts | 68° |
| 2026-05-07 20:38 | -16.51005 | -68.17733 | 13334 ft | 2 kts | 110° |
| 2026-05-07 20:39 | -16.51001 | -68.17741 | 13334 ft | 1 kts | 119° |
| 2026-05-07 20:39 | -16.51001 | -68.17743 | 13334 ft | 1 kts | 119° |
| 2026-05-07 20:43 | -16.51003 | -68.17738 | 13333 ft | 2 kts | 119° |
| 2026-05-07 20:44 | -16.51015 | -68.17715 | 13335 ft | 6 kts | 119° |
| 2026-05-07 20:44 | -16.51037 | -68.17673 | 13336 ft | 9 kts | 118° |
| 2026-05-07 20:44 | -16.51082 | -68.17606 | 13334 ft | 13 kts | 129° |
| 2026-05-07 20:44 | -16.51142 | -68.17529 | 13332 ft | 15 kts | 130° |
| 2026-05-07 20:45 | -16.51209 | -68.17447 | 13330 ft | 16 kts | 130° |
| 2026-05-07 20:45 | -16.51293 | -68.17368 | 13327 ft | 18 kts | 158° |
| 2026-05-07 20:45 | -16.51383 | -68.17366 | 13326 ft | 10 kts | 218° |
| 2026-05-07 20:45 | -16.51389 | -68.17425 | 13325 ft | 11 kts | 271° |
| 2026-05-07 20:46 | -16.51379 | -68.17637 | 13323 ft | 54 kts | 270° |
| 2026-05-07 20:46 | -16.51365 | -68.18187 | 13300 ft | 99 kts | 273° |
| 2026-05-07 20:46 | -16.51341 | -68.19038 | 13284 ft | 135 kts | 272° |
| 2026-05-07 20:46 | -16.51305 | -68.20133 | 13216 ft | 167 kts | 271° |
| 2026-05-07 20:47 | -16.51262 | -68.21384 | 13451 ft | 171 kts | 274° |
| 2026-05-07 20:47 | -16.51218 | -68.22640 | 13863 ft | 178 kts | 275° |
| 2026-05-07 20:47 | -16.51173 | -68.23969 | 14110 ft | 188 kts | 274° |
| 2026-05-07 20:47 | -16.51113 | -68.25349 | 14434 ft | 193 kts | 272° |
| 2026-05-07 20:48 | -16.51054 | -68.26775 | 14647 ft | 203 kts | 271° |
| 2026-05-07 20:48 | -16.51012 | -68.28312 | 14744 ft | 220 kts | 270° |
| 2026-05-07 20:48 | -16.50975 | -68.29964 | 14854 ft | 236 kts | 268° |
| 2026-05-07 20:48 | -16.51445 | -68.31611 | 15014 ft | 245 kts | 232° |
| 2026-05-07 20:49 | -16.52834 | -68.32675 | 15178 ft | 260 kts | 196° |
| 2026-05-07 20:49 | -16.54661 | -68.32680 | 15457 ft | 273 kts | 161° |
| 2026-05-07 20:49 | -16.56251 | -68.31570 | 15765 ft | 286 kts | 130° |
| 2026-05-07 20:49 | -16.57338 | -68.29763 | 16031 ft | 303 kts | 116° |
| 2026-05-07 20:50 | -16.58200 | -68.27692 | 16267 ft | 320 kts | 114° |
| 2026-05-07 20:50 | -16.59067 | -68.25492 | 16508 ft | 336 kts | 115° |
| 2026-05-07 20:50 | -16.60049 | -68.23218 | 16693 ft | 352 kts | 117° |
| 2026-05-07 20:50 | -16.61157 | -68.20924 | 16830 ft | 367 kts | 120° |
| 2026-05-07 20:51 | -16.62418 | -68.18546 | 16944 ft | 382 kts | 121° |
| 2026-05-07 20:51 | -16.63774 | -68.16138 | 17230 ft | 389 kts | 122° |
| 2026-05-07 20:51 | -16.65180 | -68.13703 | 17699 ft | 392 kts | 123° |
| 2026-05-07 20:51 | -16.66595 | -68.11267 | 18229 ft | 393 kts | 123° |
| 2026-05-07 20:52 | -16.68006 | -68.08830 | 18650 ft | 397 kts | 123° |
| 2026-05-07 20:52 | -16.69439 | -68.06333 | 19042 ft | 401 kts | 123° |
| 2026-05-07 20:52 | -16.70868 | -68.03820 | 19444 ft | 404 kts | 122° |
| 2026-05-07 20:52 | -16.72300 | -68.01288 | 19799 ft | 407 kts | 123° |
| 2026-05-07 20:53 | -16.73745 | -67.98726 | 20144 ft | 412 kts | 122° |
| 2026-05-07 20:53 | -16.74903 | -67.95982 | 20445 ft | 419 kts | 108° |
| 2026-05-07 20:53 | -16.75677 | -67.93029 | 20796 ft | 424 kts | 107° |
| 2026-05-07 20:53 | -16.76418 | -67.90039 | 21174 ft | 428 kts | 106° |
| 2026-05-07 20:54 | -16.77150 | -67.87014 | 21614 ft | 431 kts | 106° |
| 2026-05-07 20:54 | -16.77877 | -67.84008 | 22027 ft | 435 kts | 106° |
| 2026-05-07 20:54 | -16.78628 | -67.80941 | 22443 ft | 438 kts | 107° |
| 2026-05-07 20:54 | -16.79389 | -67.77857 | 22851 ft | 441 kts | 107° |
| 2026-05-07 20:55 | -16.80160 | -67.74742 | 23313 ft | 445 kts | 107° |
| 2026-05-07 20:55 | -16.80942 | -67.71605 | 23689 ft | 448 kts | 105° |
| 2026-05-07 20:55 | -16.81733 | -67.68441 | 24004 ft | 451 kts | 106° |
| 2026-05-07 20:55 | -16.82524 | -67.65271 | 24336 ft | 453 kts | 106° |
| 2026-05-07 20:56 | -16.83317 | -67.62080 | 24665 ft | 455 kts | 106° |
| 2026-05-07 20:56 | -16.84107 | -67.58884 | 24976 ft | 457 kts | 106° |
| 2026-05-07 20:56 | -16.84903 | -67.55655 | 25296 ft | 459 kts | 106° |
| 2026-05-07 20:56 | -16.85699 | -67.52426 | 25635 ft | 462 kts | 105° |
| 2026-05-07 20:57 | -16.86503 | -67.49169 | 25956 ft | 464 kts | 105° |
| 2026-05-07 20:57 | -16.87312 | -67.45896 | 26281 ft | 467 kts | 105° |
| 2026-05-07 20:57 | -16.88127 | -67.42595 | 26598 ft | 469 kts | 105° |
| 2026-05-07 20:57 | -16.88940 | -67.39298 | 26900 ft | 471 kts | 105° |
| 2026-05-07 20:58 | -16.89926 | -67.36027 | 27208 ft | 472 kts | 114° |
| 2026-05-07 20:58 | -16.91199 | -67.32861 | 27511 ft | 474 kts | 115° |
| 2026-05-07 20:58 | -16.92542 | -67.29712 | 27825 ft | 476 kts | 116° |
| 2026-05-07 20:58 | -16.93925 | -67.26613 | 28120 ft | 478 kts | 116° |
| 2026-05-07 20:59 | -16.95356 | -67.23478 | 28387 ft | 480 kts | 117° |
| 2026-05-07 20:59 | -16.96800 | -67.20320 | 28649 ft | 482 kts | 116° |
| 2026-05-07 20:59 | -16.98240 | -67.17145 | 28925 ft | 485 kts | 116° |
| 2026-05-07 20:59 | -16.99673 | -67.13949 | 29214 ft | 486 kts | 116° |
| 2026-05-07 21:00 | -17.01096 | -67.10743 | 29446 ft | 488 kts | 116° |
| 2026-05-07 21:00 | -17.02522 | -67.07507 | 29658 ft | 491 kts | 116° |
| 2026-05-07 21:00 | -17.03951 | -67.04257 | 29907 ft | 492 kts | 115° |
| 2026-05-07 21:00 | -17.05383 | -67.01004 | 30150 ft | 494 kts | 115° |
| 2026-05-07 21:01 | -17.06811 | -66.97767 | 30317 ft | 495 kts | 115° |
| 2026-05-07 21:01 | -17.08251 | -66.94497 | 30483 ft | 497 kts | 116° |
| 2026-05-07 21:01 | -17.09700 | -66.91216 | 30665 ft | 498 kts | 116° |
| 2026-05-07 21:01 | -17.11156 | -66.87927 | 30910 ft | 498 kts | 116° |
| 2026-05-07 21:02 | -17.12613 | -66.84637 | 31180 ft | 498 kts | 116° |
| 2026-05-07 21:02 | -17.14062 | -66.81356 | 31439 ft | 497 kts | 116° |
| 2026-05-07 21:02 | -17.15508 | -66.78073 | 31695 ft | 497 kts | 116° |
| 2026-05-07 21:02 | -17.16954 | -66.74783 | 31932 ft | 497 kts | 116° |
| 2026-05-07 21:03 | -17.18399 | -66.71496 | 32173 ft | 498 kts | 116° |
| 2026-05-07 21:03 | -17.19852 | -66.68210 | 32449 ft | 498 kts | 117° |
| 2026-05-07 21:03 | -17.21279 | -66.65001 | 32672 ft | 498 kts | 117° |
| 2026-05-07 21:03 | -17.22776 | -66.61639 | 32901 ft | 498 kts | 117° |
| 2026-05-07 21:04 | -17.24227 | -66.58376 | 33187 ft | 498 kts | 117° |
| 2026-05-07 21:04 | -17.25667 | -66.55136 | 33471 ft | 498 kts | 117° |
| 2026-05-07 21:04 | -17.27127 | -66.51856 | 33733 ft | 498 kts | 117° |
| 2026-05-07 21:04 | -17.28588 | -66.48570 | 33960 ft | 498 kts | 117° |
| 2026-05-07 21:05 | -17.30048 | -66.45283 | 34175 ft | 498 kts | 117° |
| 2026-05-07 21:05 | -17.31506 | -66.41991 | 34371 ft | 498 kts | 117° |
| 2026-05-07 21:05 | -17.32962 | -66.38693 | 34568 ft | 499 kts | 117° |
| 2026-05-07 21:05 | -17.34417 | -66.35394 | 34808 ft | 498 kts | 117° |
| 2026-05-07 21:06 | -17.35865 | -66.32111 | 35060 ft | 497 kts | 117° |
| 2026-05-07 21:06 | -17.37308 | -66.28834 | 35285 ft | 496 kts | 117° |
| 2026-05-07 21:06 | -17.38755 | -66.25551 | 35504 ft | 495 kts | 117° |
| 2026-05-07 21:06 | -17.40201 | -66.22275 | 35711 ft | 495 kts | 117° |
| 2026-05-07 21:07 | -17.41452 | -66.18920 | 35929 ft | 496 kts | 108° |
| 2026-05-07 21:07 | -17.42227 | -66.15406 | 36131 ft | 496 kts | 99° |
| 2026-05-07 21:07 | -17.42554 | -66.11805 | 36319 ft | 496 kts | 94° |
| 2026-05-07 21:07 | -17.42791 | -66.08248 | 36480 ft | 496 kts | 95° |
| 2026-05-07 21:08 | -17.43037 | -66.04649 | 36634 ft | 496 kts | 95° |
| 2026-05-07 21:08 | -17.43284 | -66.01041 | 36810 ft | 496 kts | 95° |
| 2026-05-07 21:08 | -17.43530 | -65.97451 | 36985 ft | 495 kts | 95° |
| 2026-05-07 21:08 | -17.43782 | -65.93840 | 37090 ft | 495 kts | 94° |
| 2026-05-07 21:09 | -17.44031 | -65.90239 | 37105 ft | 495 kts | 95° |
| 2026-05-07 21:09 | -17.44521 | -65.83047 | 37107 ft | 495 kts | 94° |
| 2026-05-07 21:10 | -17.44998 | -65.75841 | 37117 ft | 497 kts | 94° |
| 2026-05-07 21:10 | -17.45476 | -65.68634 | 37118 ft | 496 kts | 95° |
| 2026-05-07 21:11 | -17.45963 | -65.61421 | 37123 ft | 497 kts | 94° |
| 2026-05-07 21:11 | -17.46680 | -65.50639 | 37135 ft | 496 kts | 95° |
| 2026-05-07 21:12 | -17.47160 | -65.43482 | 37130 ft | 494 kts | 94° |
| 2026-05-07 21:12 | -17.47638 | -65.36279 | 37116 ft | 495 kts | 94° |
| 2026-05-07 21:13 | -17.48118 | -65.29085 | 37115 ft | 495 kts | 95° |
| 2026-05-07 21:13 | -17.48622 | -65.21910 | 37114 ft | 496 kts | 95° |
| 2026-05-07 21:14 | -17.49129 | -65.14687 | 37096 ft | 496 kts | 95° |
| 2026-05-07 21:14 | -17.49627 | -65.07463 | 37065 ft | 498 kts | 95° |
| 2026-05-07 21:15 | -17.50113 | -65.00263 | 37052 ft | 499 kts | 95° |
| 2026-05-07 21:15 | -17.50601 | -64.93008 | 37029 ft | 501 kts | 95° |
| 2026-05-07 21:16 | -17.51087 | -64.85788 | 37032 ft | 500 kts | 95° |
| 2026-05-07 21:16 | -17.51335 | -64.82151 | 36695 ft | 501 kts | 95° |
| 2026-05-07 21:16 | -17.51584 | -64.78481 | 35548 ft | 509 kts | 95° |
| 2026-05-07 21:17 | -17.51831 | -64.74796 | 34599 ft | 502 kts | 95° |
| 2026-05-07 21:17 | -17.52076 | -64.71152 | 33614 ft | 503 kts | 95° |
| 2026-05-07 21:17 | -17.52320 | -64.67478 | 32537 ft | 507 kts | 95° |
| 2026-05-07 21:17 | -17.52563 | -64.63784 | 31391 ft | 512 kts | 94° |
| 2026-05-07 21:18 | -17.52808 | -64.60052 | 30288 ft | 515 kts | 94° |
| 2026-05-07 21:18 | -17.53051 | -64.56337 | 29532 ft | 507 kts | 94° |
| 2026-05-07 21:18 | -17.53288 | -64.52676 | 28831 ft | 499 kts | 94° |
| 2026-05-07 21:18 | -17.53529 | -64.49075 | 28246 ft | 490 kts | 94° |
| 2026-05-07 21:19 | -17.53777 | -64.45568 | 27922 ft | 477 kts | 95° |
| 2026-05-07 21:19 | -17.54027 | -64.42128 | 27256 ft | 472 kts | 95° |
| 2026-05-07 21:19 | -17.54280 | -64.38707 | 26605 ft | 469 kts | 95° |
| 2026-05-07 21:19 | -17.54528 | -64.35317 | 25972 ft | 465 kts | 95° |
| 2026-05-07 21:20 | -17.54767 | -64.31992 | 25354 ft | 461 kts | 95° |
| 2026-05-07 21:20 | -17.55000 | -64.28655 | 24748 ft | 458 kts | 96° |
| 2026-05-07 21:20 | -17.55230 | -64.25336 | 24151 ft | 455 kts | 95° |
| 2026-05-07 21:20 | -17.55453 | -64.22048 | 23586 ft | 451 kts | 96° |
| 2026-05-07 21:21 | -17.55675 | -64.18776 | 22956 ft | 448 kts | 96° |
| 2026-05-07 21:21 | -17.55896 | -64.15544 | 22430 ft | 442 kts | 96° |
| 2026-05-07 21:21 | -17.56115 | -64.12347 | 21890 ft | 438 kts | 96° |
| 2026-05-07 21:21 | -17.56335 | -64.09180 | 21355 ft | 434 kts | 96° |
| 2026-05-07 21:22 | -17.56479 | -64.07102 | 21003 ft | 431 kts | 96° |
| 2026-05-07 21:22 | -17.56695 | -64.03977 | 20455 ft | 428 kts | 96° |
| 2026-05-07 21:22 | -17.56911 | -64.00875 | 19904 ft | 426 kts | 96° |
| 2026-05-07 21:22 | -17.57122 | -63.97788 | 19345 ft | 425 kts | 96° |
| 2026-05-07 21:23 | -17.57328 | -63.94706 | 18776 ft | 423 kts | 96° |
| 2026-05-07 21:23 | -17.57535 | -63.91638 | 18206 ft | 422 kts | 95° |
| 2026-05-07 21:23 | -17.57744 | -63.88571 | 17604 ft | 421 kts | 95° |
| 2026-05-07 21:23 | -17.58022 | -63.84551 | 16871 ft | 416 kts | 95° |
| 2026-05-07 21:24 | -17.58160 | -63.82520 | 16480 ft | 409 kts | 96° |
| 2026-05-07 21:24 | -17.58354 | -63.79603 | 15927 ft | 393 kts | 96° |
| 2026-05-07 21:24 | -17.58537 | -63.76800 | 15420 ft | 379 kts | 95° |
| 2026-05-07 21:24 | -17.58719 | -63.74048 | 14915 ft | 379 kts | 95° |
| 2026-05-07 21:25 | -17.58903 | -63.71289 | 14400 ft | 379 kts | 96° |
| 2026-05-07 21:25 | -17.59090 | -63.68534 | 13897 ft | 379 kts | 96° |
| 2026-05-07 21:25 | -17.59277 | -63.65777 | 13348 ft | 380 kts | 95° |
| 2026-05-07 21:25 | -17.59463 | -63.63019 | 12808 ft | 379 kts | 95° |
| 2026-05-07 21:26 | -17.59646 | -63.60269 | 12281 ft | 377 kts | 94° |
| 2026-05-07 21:26 | -17.59830 | -63.57529 | 11740 ft | 377 kts | 94° |
| 2026-05-07 21:26 | -17.60011 | -63.54830 | 11215 ft | 376 kts | 93° |
| 2026-05-07 21:26 | -17.60193 | -63.52098 | 10667 ft | 375 kts | 93° |
| 2026-05-07 21:27 | -17.60369 | -63.49424 | 10137 ft | 361 kts | 92° |
| 2026-05-07 21:27 | -17.60535 | -63.46886 | 9935 ft | 337 kts | 92° |
| 2026-05-07 21:27 | -17.60694 | -63.44471 | 9628 ft | 328 kts | 92° |
| 2026-05-07 21:27 | -17.60849 | -63.42103 | 9499 ft | 325 kts | 92° |
| 2026-05-07 21:28 | -17.61004 | -63.39738 | 9179 ft | 324 kts | 91° |
| 2026-05-07 21:28 | -17.61157 | -63.37386 | 8772 ft | 323 kts | 91° |
| 2026-05-07 21:28 | -17.61308 | -63.35039 | 8359 ft | 322 kts | 91° |
| 2026-05-07 21:28 | -17.61456 | -63.32703 | 7941 ft | 321 kts | 90° |
| 2026-05-07 21:29 | -17.61605 | -63.30405 | 7736 ft | 311 kts | 90° |
| 2026-05-07 21:29 | -17.61752 | -63.28162 | 7407 ft | 306 kts | 90° |
| 2026-05-07 21:29 | -17.61896 | -63.25962 | 6964 ft | 297 kts | 89° |
| 2026-05-07 21:29 | -17.62036 | -63.23857 | 6627 ft | 285 kts | 88° |
| 2026-05-07 21:30 | -17.62170 | -63.21794 | 6140 ft | 283 kts | 87° |
| 2026-05-07 21:30 | -17.62298 | -63.19767 | 5653 ft | 281 kts | 87° |
| 2026-05-07 21:30 | -17.62427 | -63.17737 | 5275 ft | 279 kts | 87° |
| 2026-05-07 21:30 | -17.62679 | -63.15710 | 4905 ft | 283 kts | 99° |
| 2026-05-07 21:31 | -17.63411 | -63.13787 | 4598 ft | 285 kts | 118° |
| 2026-05-07 21:31 | -17.64542 | -63.12120 | 4358 ft | 279 kts | 127° |
| 2026-05-07 21:31 | -17.65735 | -63.10500 | 3981 ft | 278 kts | 126° |
| 2026-05-07 21:31 | -17.66877 | -63.08937 | 3907 ft | 263 kts | 125° |
| 2026-05-07 21:32 | -17.67952 | -63.07458 | 3874 ft | 247 kts | 124° |
| 2026-05-07 21:32 | -17.68965 | -63.06057 | 3833 ft | 239 kts | 124° |
| 2026-05-07 21:32 | -17.69963 | -63.04671 | 3663 ft | 237 kts | 124° |
| 2026-05-07 21:32 | -17.70960 | -63.03291 | 3547 ft | 238 kts | 123° |
| 2026-05-07 21:33 | -17.71962 | -63.01903 | 3453 ft | 238 kts | 123° |
| 2026-05-07 21:33 | -17.72962 | -63.00519 | 3353 ft | 238 kts | 123° |
| 2026-05-07 21:33 | -17.73983 | -62.99155 | 3291 ft | 238 kts | 130° |
| 2026-05-07 21:33 | -17.75377 | -62.98245 | 3230 ft | 238 kts | 168° |
| 2026-05-07 21:34 | -17.76974 | -62.98174 | 3159 ft | 225 kts | 202° |
| 2026-05-07 21:34 | -17.78302 | -62.98821 | 3073 ft | 204 kts | 232° |
| 2026-05-07 21:34 | -17.79162 | -62.99888 | 2993 ft | 184 kts | 255° |
| 2026-05-07 21:34 | -17.79536 | -63.01108 | 2977 ft | 160 kts | 276° |
| 2026-05-07 21:35 | -17.79526 | -63.02110 | 2970 ft | 122 kts | 292° |
| 2026-05-07 21:35 | -17.79263 | -63.02980 | 2993 ft | 129 kts | 302° |
| 2026-05-07 21:35 | -17.78766 | -63.03771 | 2985 ft | 132 kts | 316° |
| 2026-05-07 21:35 | -17.78015 | -63.04325 | 2987 ft | 133 kts | 324° |
| 2026-05-07 21:36 | -17.77259 | -63.04879 | 2980 ft | 129 kts | 325° |
| 2026-05-07 21:36 | -17.76586 | -63.05353 | 2987 ft | 109 kts | 326° |
| 2026-05-07 21:36 | -17.75956 | -63.05788 | 2980 ft | 108 kts | 326° |
| 2026-05-07 21:36 | -17.75325 | -63.06220 | 2982 ft | 109 kts | 326° |
| 2026-05-07 21:37 | -17.74691 | -63.06651 | 2978 ft | 108 kts | 326° |
| 2026-05-07 21:37 | -17.74057 | -63.07081 | 2977 ft | 109 kts | 326° |
| 2026-05-07 21:37 | -17.73419 | -63.07511 | 2896 ft | 109 kts | 327° |
| 2026-05-07 21:37 | -17.72781 | -63.07942 | 2788 ft | 109 kts | 327° |
| 2026-05-07 21:38 | -17.72140 | -63.08374 | 2662 ft | 110 kts | 327° |
| 2026-05-07 21:38 | -17.71501 | -63.08805 | 2531 ft | 108 kts | 329° |
| 2026-05-07 21:38 | -17.70871 | -63.09230 | 2399 ft | 108 kts | 329° |
| 2026-05-07 21:38 | -17.70240 | -63.09655 | 2265 ft | 108 kts | 330° |
| 2026-05-07 21:39 | -17.69609 | -63.10080 | 2133 ft | 108 kts | 327° |
| 2026-05-07 21:39 | -17.68947 | -63.10524 | 1990 ft | 116 kts | 329° |
| 2026-05-07 21:39 | -17.68277 | -63.10976 | 1833 ft | 113 kts | 330° |
| 2026-05-07 21:39 | -17.67579 | -63.11449 | 1699 ft | 122 kts | 329° |
| 2026-05-07 21:40 | -17.66869 | -63.11927 | 1504 ft | 120 kts | 329° |
| 2026-05-07 21:40 | -17.66161 | -63.12405 | 1348 ft | 123 kts | 329° |
| 2026-05-07 21:40 | -17.65454 | -63.12882 | 1238 ft | 115 kts | 329° |
| 2026-05-07 21:40 | -17.64982 | -63.13193 | 1231 ft | 45 kts | 328° |
| 2026-05-07 21:41 | -17.64747 | -63.13348 | 1232 ft | 35 kts | 326° |
| 2026-05-07 21:41 | -17.64559 | -63.13474 | 1233 ft | 29 kts | 329° |
| 2026-05-07 21:41 | -17.64394 | -63.13585 | 1232 ft | 27 kts | 324° |
| 2026-05-07 21:41 | -17.64243 | -63.13694 | 1231 ft | 25 kts | 327° |
| 2026-05-07 21:42 | -17.64092 | -63.13791 | 1228 ft | 26 kts | 325° |
| 2026-05-07 21:42 | -17.63951 | -63.13892 | 1229 ft | 22 kts | 327° |
| 2026-05-07 21:42 | -17.63907 | -63.13989 | 1229 ft | 16 kts | 242° |
| 2026-05-07 21:42 | -17.63961 | -63.14081 | 1231 ft | 13 kts | 224° |
| 2026-05-07 21:43 | -17.64035 | -63.14066 | 1231 ft | 11 kts | 148° |
| 2026-05-07 21:43 | -17.64104 | -63.14022 | 1231 ft | 13 kts | 149° |
| 2026-05-07 21:43 | -17.64183 | -63.13971 | 1231 ft | 13 kts | 147° |
| 2026-05-07 21:43 | -17.64234 | -63.13938 | 1231 ft | 8 kts | 148° |
| 2026-05-07 21:44 | -17.64284 | -63.13904 | 1231 ft | 9 kts | 146° |
| 2026-05-07 21:44 | -17.64337 | -63.13866 | 1231 ft | 9 kts | 146° |
| 2026-05-07 21:44 | -17.64396 | -63.13856 | 1231 ft | 9 kts | 224° |
| 2026-05-07 21:44 | -17.64427 | -63.13905 | 1231 ft | 8 kts | 237° |
| 2026-05-07 21:45 | -17.64454 | -63.13950 | 1231 ft | 7 kts | 237° |
| 2026-05-07 21:45 | -17.64477 | -63.13988 | 1231 ft | 6 kts | 237° |
| 2026-05-07 21:45 | -17.64517 | -63.14025 | 1231 ft | 9 kts | 193° |
| 2026-05-07 21:45 | -17.64575 | -63.13999 | 1231 ft | 10 kts | 147° |
| 2026-05-07 21:46 | -17.64636 | -63.13957 | 1231 ft | 11 kts | 148° |
| 2026-05-07 21:46 | -17.64694 | -63.13919 | 1231 ft | 8 kts | 148° |
| 2026-05-07 21:46 | -17.64727 | -63.13915 | 1231 ft | 5 kts | 218° |
| 2026-05-07 21:46 | -17.64743 | -63.13941 | 1231 ft | 4 kts | 239° |
| 2026-05-07 21:47 | -17.64756 | -63.13962 | 1231 ft | 3 kts | 237° |
| 2026-05-07 21:47 | -17.64763 | -63.13973 | 1231 ft | 0 kts | 237° |
| 2026-05-07 21:56 | -17.64762 | -63.13973 | 1231 ft | 0 kts | 237° |